Station Historical Data
Daily Summary for October 23, 2017 Units:  English    Metric   Both
« Previous Day
Next Day »
Daily Weekly Monthly Yearly Custom
  High: Low: Average:
Temperature: 69.2 °F 54.6 °F 64.5 °F
Dew Point: 65.6 °F 50.8 °F 59.6 °F
Humidity: 94% 60% 85%
Wind Speed: 26.5mph 8.0mph 13.5mph
Wind Gust: 26.5mph - -
Wind- - SSW
Pressure: 30.12 in 29.84 in -
Precipitation: 2.58 in    
Historical Graphs
 
 
Tabular Data for October 23, 2017
Time Temperature Dew Point Pressure Wind Wind Speed Wind Gust Humidity Rainfall Rate (Hourly) Conditions
00:00 67.5 °F 63.5 °F 30.12 in ESE 15.0 mph 15.0 mph 87% 0.00 in OVC
00:05 67.4 °F 63.4 °F 30.12 in ESE 17.3 mph 17.3 mph 87% 0.00 in OVC
00:10 67.3 °F 63.3 °F 30.12 in ESE 17.3 mph 17.3 mph 87% 0.00 in OVC
00:15 67.3 °F 63.3 °F 30.12 in ESE 15.0 mph 15.0 mph 87% 0.00 in OVC
00:20 67.2 °F 63.5 °F 30.12 in ESE 15.0 mph 15.0 mph 88% 0.00 in OVC
00:26 67.2 °F 63.5 °F 30.11 in ESE 15.0 mph 15.0 mph 88% 0.00 in OVC
00:31 67.2 °F 63.5 °F 30.11 in ESE 15.0 mph 15.0 mph 88% 0.00 in OVC
00:36 67.1 °F 63.4 °F 30.11 in ESE 15.0 mph 15.0 mph 88% 0.00 in OVC
00:41 67.1 °F 63.4 °F 30.11 in ESE 15.0 mph 15.0 mph 88% 0.00 in OVC
00:46 67.0 °F 63.6 °F 30.11 in ESE 15.0 mph 15.0 mph 89% 0.00 in OVC
00:51 66.9 °F 63.6 °F 30.11 in ESE 15.0 mph 15.0 mph 89% 0.00 in OVC
00:56 66.9 °F 63.6 °F 30.10 in ESE 15.0 mph 15.0 mph 89% 0.00 in OVC
01:01 66.8 °F 63.5 °F 30.10 in East 15.0 mph 15.0 mph 89% 0.00 in OVC
01:06 66.7 °F 63.7 °F 30.10 in East 13.8 mph 13.8 mph 90% 0.00 in OVC
01:11 66.7 °F 63.7 °F 30.09 in East 13.8 mph 13.8 mph 90% 0.00 in OVC
01:16 66.6 °F 63.6 °F 30.09 in East 13.8 mph 13.8 mph 90% 0.00 in OVC
01:21 66.6 °F 63.6 °F 30.08 in East 25.3 mph 25.3 mph 90% 0.00 in OVC
01:26 66.6 °F 63.9 °F 30.08 in East 25.3 mph 25.3 mph 91% 0.00 in OVC
01:31 66.6 °F 63.9 °F 30.09 in East 25.3 mph 25.3 mph 91% 0.00 in OVC
01:36 66.6 °F 63.9 °F 30.08 in East 25.3 mph 25.3 mph 91% 0.00 in OVC
01:41 66.6 °F 63.9 °F 30.09 in ESE 25.3 mph 25.3 mph 91% 0.00 in -DZ
01:46 66.6 °F 63.9 °F 30.08 in ESE 13.8 mph 13.8 mph 91% 0.00 in -DZ
01:51 66.6 °F 63.9 °F 30.08 in ESE 13.8 mph 13.8 mph 91% 0.00 in -DZ
01:56 66.6 °F 63.9 °F 30.08 in ESE 13.8 mph 13.8 mph 91% 0.00 in -DZ
02:02 66.5 °F 64.1 °F 30.08 in ESE 13.8 mph 13.8 mph 92% 0.00 in -RA
02:07 66.5 °F 64.1 °F 30.07 in ESE 12.7 mph 12.7 mph 92% 0.00 in -RA
02:12 66.5 °F 64.1 °F 30.06 in ESE 12.7 mph 12.7 mph 92% 0.00 in -RA
02:17 66.5 °F 64.1 °F 30.06 in ESE 12.7 mph 12.7 mph 92% 0.00 in -RA
02:22 66.5 °F 64.1 °F 30.06 in ESE 12.7 mph 12.7 mph 92% 0.01 in -RA
02:27 66.5 °F 64.1 °F 30.05 in ESE 12.7 mph 12.7 mph 92% 0.01 in -RA
02:32 66.5 °F 64.4 °F 30.05 in East 24.2 mph 24.2 mph 93% 0.01 in -RA
02:37 66.5 °F 64.4 °F 30.05 in East 24.2 mph 24.2 mph 93% 0.01 in -RA
02:42 66.5 °F 64.4 °F 30.05 in East 24.2 mph 24.2 mph 93% 0.01 in -RA
02:47 66.5 °F 64.4 °F 30.04 in East 24.2 mph 24.2 mph 93% 0.01 in -RA
02:52 66.5 °F 64.4 °F 30.05 in ESE 24.2 mph 24.2 mph 93% 0.01 in OVC
02:57 66.5 °F 64.4 °F 30.04 in ESE 12.7 mph 12.7 mph 93% 0.01 in OVC
03:02 66.6 °F 64.5 °F 30.05 in ESE 12.7 mph 12.7 mph 93% 0.01 in OVC
03:07 66.6 °F 64.5 °F 30.04 in ESE 12.7 mph 12.7 mph 93% 0.01 in OVC
03:12 66.5 °F 64.4 °F 30.03 in ESE 12.7 mph 12.7 mph 93% 0.01 in OVC
03:17 66.6 °F 64.5 °F 30.03 in ESE 12.7 mph 12.7 mph 93% 0.02 in RA
03:22 66.6 °F 64.5 °F 30.03 in ESE 13.8 mph 13.8 mph 93% 0.01 in -RA
03:27 66.6 °F 64.5 °F 30.03 in ESE 13.8 mph 13.8 mph 93% 0.04 in -RA
03:32 66.6 °F 64.5 °F 30.02 in East 13.8 mph 13.8 mph 93% 0.07 in -RA
03:38 66.6 °F 64.5 °F 30.02 in East 12.7 mph 12.7 mph 93% 0.09 in -RA
03:43 66.6 °F 64.5 °F 30.02 in East 12.7 mph 12.7 mph 93% 0.14 in -RA
03:48 66.6 °F 64.5 °F 30.01 in East 12.7 mph 12.7 mph 93% 0.21 in -RA
03:53 66.6 °F 64.5 °F 30.01 in ESE 12.7 mph 12.7 mph 93% 0.22 in -RA
03:58 66.6 °F 64.5 °F 30.00 in ESE 12.7 mph 12.7 mph 93% 0.23 in -RA
04:03 66.6 °F 64.5 °F 30.00 in ESE 10.4 mph 10.4 mph 93% 0.25 in -RA
04:08 66.5 °F 64.4 °F 29.99 in ESE 10.4 mph 10.4 mph 93% 0.25 in -RA
04:13 66.6 °F 64.5 °F 29.99 in East 10.4 mph 10.4 mph 93% 0.25 in OVC
04:18 66.6 °F 64.5 °F 29.98 in East 10.4 mph 10.4 mph 93% 0.25 in OVC
04:20 66.6 °F 64.5 °F 29.98 in East 10.4 mph 10.4 mph 93% 0.25 in OVC
04:25 66.6 °F 64.5 °F 29.97 in East 11.5 mph 11.5 mph 93% 0.23 in OVC
04:30 66.6 °F 64.8 °F 29.97 in East 11.5 mph 11.5 mph 94% 0.18 in OVC
04:35 66.7 °F 64.9 °F 29.97 in East 11.5 mph 11.5 mph 94% 0.17 in OVC
04:40 66.7 °F 64.9 °F 29.96 in East 11.5 mph 11.5 mph 94% 0.15 in OVC
04:46 66.8 °F 65.0 °F 29.96 in East 11.5 mph 11.5 mph 94% 0.06 in OVC
04:51 66.9 °F 65.1 °F 29.96 in East 11.5 mph 11.5 mph 94% 0.03 in OVC
04:56 66.9 °F 65.1 °F 29.96 in ESE 11.5 mph 11.5 mph 94% 0.02 in -DZ
05:01 67.0 °F 65.2 °F 29.96 in ESE 11.5 mph 11.5 mph 94% 0.03 in -DZ
05:06 67.0 °F 65.2 °F 29.96 in ESE 13.8 mph 13.8 mph 94% 0.09 in -RA
05:11 67.1 °F 65.3 °F 29.96 in ESE 13.8 mph 13.8 mph 94% 0.10 in -RA
05:16 67.1 °F 65.3 °F 29.96 in ESE 13.8 mph 13.8 mph 94% 0.11 in -RA
05:21 67.1 °F 65.3 °F 29.96 in ESE 15.0 mph 15.0 mph 94% 0.23 in -RA
05:26 67.1 °F 65.3 °F 29.96 in ESE 15.0 mph 15.0 mph 94% 0.25 in -RA
05:31 67.2 °F 65.4 °F 29.96 in ESE 15.0 mph 15.0 mph 94% 0.29 in -RA
05:36 67.2 °F 65.4 °F 29.95 in ESE 13.8 mph 13.8 mph 94% 0.29 in -RA
05:41 67.2 °F 65.4 °F 29.95 in ESE 13.8 mph 13.8 mph 94% 0.30 in -RA
05:46 67.2 °F 65.4 °F 29.95 in ESE 13.8 mph 13.8 mph 94% 0.32 in -RA
05:51 67.2 °F 65.4 °F 29.94 in ESE 13.8 mph 13.8 mph 94% 0.34 in -RA
05:56 67.2 °F 65.4 °F 29.94 in ESE 13.8 mph 13.8 mph 94% 0.36 in -RA
06:01 67.3 °F 65.5 °F 29.94 in ESE 13.8 mph 13.8 mph 94% 0.36 in -RA
06:06 67.3 °F 65.5 °F 29.93 in ESE 13.8 mph 13.8 mph 94% 0.32 in -RA
06:11 67.3 °F 65.5 °F 29.93 in ESE 13.8 mph 13.8 mph 94% 0.32 in -RA
06:16 67.3 °F 65.5 °F 29.93 in ESE 13.8 mph 13.8 mph 94% 0.31 in -RA
06:21 67.3 °F 65.5 °F 29.92 in ESE 13.8 mph 13.8 mph 94% 0.19 in -RA
06:26 67.3 °F 65.5 °F 29.92 in ESE 13.8 mph 13.8 mph 94% 0.18 in -RA
06:32 67.3 °F 65.5 °F 29.92 in ESE 13.8 mph 13.8 mph 94% 0.16 in -RA
06:37 67.3 °F 65.5 °F 29.91 in ESE 13.8 mph 13.8 mph 94% 0.17 in -RA
06:42 67.3 °F 65.5 °F 29.92 in ESE 13.8 mph 13.8 mph 94% 0.16 in -RA
06:47 67.2 °F 65.4 °F 29.92 in ESE 13.8 mph 13.8 mph 94% 0.13 in -RA
06:52 67.2 °F 65.4 °F 29.92 in ESE 13.8 mph 13.8 mph 94% 0.13 in -RA
06:57 67.2 °F 65.4 °F 29.92 in ESE 13.8 mph 13.8 mph 94% 0.11 in -RA
07:02 67.2 °F 65.4 °F 29.92 in ESE 13.8 mph 13.8 mph 94% 0.10 in -RA
07:07 67.2 °F 65.4 °F 29.91 in ESE 9.2 mph 9.2 mph 94% 0.09 in -RA
07:12 67.2 °F 65.4 °F 29.92 in ESE 9.2 mph 9.2 mph 94% 0.08 in -RA
07:17 67.3 °F 65.5 °F 29.92 in ESE 9.2 mph 9.2 mph 94% 0.07 in -RA
07:22 67.3 °F 65.5 °F 29.92 in ESE 9.2 mph 9.2 mph 94% 0.06 in -RA
07:27 67.3 °F 65.5 °F 29.91 in ESE 9.2 mph 9.2 mph 94% 0.06 in -RA
07:32 67.3 °F 65.5 °F 29.91 in ESE 9.2 mph 9.2 mph 94% 0.06 in -RA
07:37 67.3 °F 65.5 °F 29.91 in ESE 9.2 mph 9.2 mph 94% 0.07 in -RA
07:42 67.3 °F 65.5 °F 29.91 in ESE 9.2 mph 9.2 mph 94% 0.10 in -RA
07:47 67.3 °F 65.5 °F 29.91 in ESE 9.2 mph 9.2 mph 94% 0.15 in -RA
07:52 67.3 °F 65.5 °F 29.90 in ESE 9.2 mph 9.2 mph 94% 0.16 in -RA
07:57 67.3 °F 65.5 °F 29.90 in ESE 9.2 mph 9.2 mph 94% 0.17 in -RA
08:03 67.3 °F 65.5 °F 29.90 in SSE 9.2 mph 9.2 mph 94% 0.19 in -RA
08:08 67.3 °F 65.5 °F 29.90 in SSE 8.1 mph 8.1 mph 94% 0.23 in -RA
08:13 67.3 °F 65.5 °F 29.90 in SE 11.5 mph 11.5 mph 94% 0.28 in RA
08:18 67.3 °F 65.5 °F 29.89 in SE 11.5 mph 11.5 mph 94% 0.31 in RA
08:23 67.3 °F 65.5 °F 29.89 in SE 11.5 mph 11.5 mph 94% 0.34 in RA
08:28 67.3 °F 65.5 °F 29.89 in SE 11.5 mph 11.5 mph 94% 0.37 in RA
08:33 67.4 °F 65.6 °F 29.88 in SE 11.5 mph 11.5 mph 94% 0.37 in OVC
08:38 67.3 °F 65.5 °F 29.88 in SE 11.5 mph 11.5 mph 94% 0.35 in RA
08:43 67.3 °F 65.5 °F 29.88 in SE 19.6 mph 19.6 mph 94% 0.35 in -RA
08:48 67.3 °F 65.5 °F 29.88 in SE 19.6 mph 19.6 mph 94% 0.31 in -RA
08:53 67.4 °F 65.6 °F 29.88 in SSE 9.2 mph 9.2 mph 94% 0.29 in -RA
08:58 67.4 °F 65.6 °F 29.88 in SSE 9.2 mph 9.2 mph 94% 0.34 in -RA
09:03 67.3 °F 65.5 °F 29.88 in SSE 10.4 mph 10.4 mph 94% 0.36 in RA
09:08 67.2 °F 65.4 °F 29.87 in SSE 10.4 mph 10.4 mph 94% 0.34 in RA
09:13 67.1 °F 65.3 °F 29.87 in SSE 10.4 mph 10.4 mph 94% 0.32 in RA
09:18 67.1 °F 65.3 °F 29.87 in SSE 10.4 mph 10.4 mph 94% 0.29 in OVC
09:24 67.1 °F 65.3 °F 29.86 in SSE 10.4 mph 10.4 mph 94% 0.25 in -RA
09:29 67.1 °F 65.3 °F 29.86 in SSE 10.4 mph 10.4 mph 94% 0.22 in -RA
09:34 67.1 °F 65.3 °F 29.86 in SSE 10.4 mph 10.4 mph 94% 0.21 in -RA
09:39 67.1 °F 65.3 °F 29.85 in SSE 10.4 mph 10.4 mph 94% 0.20 in -RA
09:44 67.1 °F 65.3 °F 29.86 in SSE 10.4 mph 10.4 mph 94% 0.18 in -RA
09:49 67.1 °F 65.3 °F 29.85 in SSE 10.4 mph 10.4 mph 94% 0.17 in -RA
09:54 67.1 °F 65.3 °F 29.85 in SSE 11.5 mph 11.5 mph 94% 0.14 in OVC
09:59 67.2 °F 65.4 °F 29.85 in SSE 11.5 mph 11.5 mph 94% 0.09 in OVC
10:09 67.3 °F 65.5 °F 29.85 in SSE 10.4 mph 10.4 mph 94% 0.03 in OVC
10:14 67.3 °F 65.5 °F 29.86 in SSE 10.4 mph 10.4 mph 94% 0.01 in OVC
10:20 67.3 °F 65.5 °F 29.89 in SSE 10.4 mph 10.4 mph 94% 0.02 in RA
10:25 65.6 °F 63.2 °F 29.89 in SSE 8.0 mph 10.0 mph 92% 0.10 in -RA
10:30 63.8 °F 61.1 °F 29.87 in SSE 8.1 mph 8.1 mph 91% 0.21 in -RA
10:35 63.0 °F 60.7 °F 29.88 in WSW 15.0 mph 25.0 mph 92% 0.03 in RA
10:40 62.6 °F 60.5 °F 29.89 in West 25.3 mph 25.3 mph 93% 0.42 in RA
10:45 62.3 °F 60.2 °F 29.90 in West 26.5 mph 26.5 mph 93% 0.71 in +RA
10:50 62.1 °F 60.1 °F 29.90 in West 26.5 mph 26.5 mph 93% 0.89 in +RA
10:55 61.9 °F 59.9 °F 29.89 in West 13.8 mph 13.8 mph 93% 1.02 in +RA
11:00 61.7 °F 59.7 °F 29.88 in West 13.8 mph 13.8 mph 93% 1.08 in +RA
11:05 61.7 °F 60.0 °F 29.87 in WNW 23.0 mph 23.0 mph 94% 1.13 in +RA
11:10 61.5 °F 59.8 °F 29.88 in WNW 23.0 mph 23.0 mph 94% 1.17 in +RA
11:20 61.4 °F 59.7 °F 29.87 in WNW 10.4 mph 10.4 mph 94% 1.19 in OVC
11:25 61.6 °F 59.9 °F 29.88 in West 10.4 mph 10.4 mph 94% 1.11 in -RA
11:30 61.7 °F 60.0 °F 29.88 in West 10.4 mph 10.4 mph 94% 1.00 in -RA
11:35 61.8 °F 60.1 °F 29.88 in West 10.4 mph 10.4 mph 94% 0.88 in -RA
11:40 61.9 °F 60.2 °F 29.88 in West 10.4 mph 10.4 mph 94% 0.75 in -RA
11:45 62.2 °F 60.5 °F 29.89 in WNW 9.2 mph 9.2 mph 94% 0.51 in OVC
11:50 62.4 °F 60.7 °F 29.89 in WNW 9.2 mph 9.2 mph 94% 0.34 in OVC
11:55 62.7 °F 60.9 °F 29.89 in WNW 9.2 mph 9.2 mph 94% 0.18 in OVC
12:00 63.1 °F 61.3 °F 29.89 in WNW 9.2 mph 9.2 mph 94% 0.14 in OVC
12:05 63.5 °F 61.7 °F 29.90 in West 11.5 mph 11.5 mph 94% 0.08 in BKN
12:10 64.0 °F 62.2 °F 29.90 in West 11.5 mph 11.5 mph 94% 0.05 in BKN
12:16 64.1 °F 62.3 °F 29.90 in West 11.5 mph 11.5 mph 94% 0.04 in BKN
12:21 63.9 °F 62.1 °F 29.89 in West 11.5 mph 11.5 mph 94% 0.02 in BKN
12:26 64.2 °F 62.4 °F 29.90 in West 11.5 mph 11.5 mph 94% 0.00 in BKN
12:31 63.7 °F 61.6 °F 29.89 in West 11.5 mph 11.5 mph 93% 0.00 in BKN
12:36 64.0 °F 61.9 °F 29.90 in West 11.5 mph 11.5 mph 93% 0.00 in BKN
12:41 64.1 °F 62.0 °F 29.90 in West 11.5 mph 11.5 mph 93% 0.00 in BKN
12:46 63.9 °F 61.2 °F 29.90 in West 11.5 mph 11.5 mph 91% 0.00 in BKN
12:51 63.7 °F 61.0 °F 29.89 in West 11.5 mph 11.5 mph 91% 0.00 in BKN
12:56 63.9 °F 61.2 °F 29.88 in West 11.5 mph 11.5 mph 91% 0.00 in BKN
13:01 64.5 °F 62.1 °F 29.88 in West 11.5 mph 11.5 mph 92% 0.00 in BKN
13:06 64.9 °F 61.9 °F 29.87 in West 11.5 mph 11.5 mph 90% 0.00 in BKN
13:11 65.0 °F 61.4 °F 29.88 in West 12.7 mph 12.7 mph 88% 0.00 in BKN
13:16 65.0 °F 61.0 °F 29.88 in West 12.7 mph 12.7 mph 87% 0.00 in BKN
13:21 65.0 °F 61.0 °F 29.88 in West 12.7 mph 12.7 mph 87% 0.00 in BKN
13:26 65.4 °F 61.4 °F 29.88 in West 12.7 mph 12.7 mph 87% 0.00 in BKN
13:31 65.9 °F 61.9 °F 29.88 in West 12.7 mph 12.7 mph 87% 0.00 in FEW
13:36 66.2 °F 61.9 °F 29.87 in West 9.2 mph 9.2 mph 86% 0.00 in FEW
13:41 66.1 °F 59.7 °F 29.86 in West 9.2 mph 9.2 mph 80% 0.00 in FEW
13:47 66.4 °F 60.7 °F 29.86 in West 9.2 mph 9.2 mph 82% 0.00 in FEW
13:52 67.0 °F 60.6 °F 29.86 in West 9.2 mph 9.2 mph 80% 0.00 in FEW
13:57 66.8 °F 60.1 °F 29.86 in West 9.2 mph 9.2 mph 79% 0.00 in FEW
14:02 66.8 °F 60.1 °F 29.86 in SW 12.7 mph 12.7 mph 79% 0.00 in BKN
14:05 66.9 °F 59.8 °F 29.86 in WSW 13.0 mph 13.0 mph 78% 0.00 in BKN
14:10 66.8 °F 59.0 °F 29.85 in SW 13.0 mph 13.0 mph 76% 0.00 in BKN
14:15 66.9 °F 59.4 °F 29.85 in SW 13.0 mph 13.0 mph 77% 0.00 in BKN
14:20 67.0 °F 59.2 °F 29.85 in SW 13.0 mph 13.0 mph 76% 0.00 in BKN
14:25 67.5 °F 57.8 °F 29.85 in SW 12.7 mph 12.7 mph 71% 0.00 in BKN
14:30 67.5 °F 57.3 °F 29.85 in SW 13.0 mph 13.0 mph 70% 0.00 in BKN
14:35 67.1 °F 57.4 °F 29.85 in SW 12.7 mph 12.7 mph 71% 0.00 in BKN
14:40 67.1 °F 58.5 °F 29.85 in SW 12.7 mph 12.7 mph 74% 0.00 in BKN
14:45 67.8 °F 58.1 °F 29.85 in SW 12.7 mph 12.7 mph 71% 0.00 in BKN
14:50 68.6 °F 58.8 °F 29.85 in SW 12.7 mph 12.7 mph 71% 0.00 in BKN
14:52 68.8 °F 57.8 °F 29.84 in SW 12.7 mph 12.7 mph 68% 0.00 in BKN
14:57 69.1 °F 57.3 °F 29.85 in SW 12.7 mph 12.7 mph 66% 0.00 in BKN
15:02 68.9 °F 57.1 °F 29.85 in WSW 13.8 mph 13.8 mph 66% 0.00 in BKN
15:07 68.9 °F 58.3 °F 29.85 in WSW 13.8 mph 13.8 mph 69% 0.00 in BKN
15:12 69.1 °F 58.5 °F 29.85 in WSW 13.8 mph 13.8 mph 69% 0.00 in BKN
15:17 69.2 °F 59.0 °F 29.85 in WSW 13.8 mph 13.8 mph 70% 0.00 in BKN
15:22 69.1 °F 57.7 °F 29.85 in WSW 13.8 mph 13.8 mph 67% 0.00 in BKN
15:27 68.7 °F 56.9 °F 29.85 in WSW 13.8 mph 13.8 mph 66% 0.00 in BKN
15:32 68.4 °F 56.6 °F 29.85 in WSW 13.8 mph 13.8 mph 66% 0.00 in BKN
15:37 68.4 °F 56.6 °F 29.85 in WSW 13.8 mph 13.8 mph 66% 0.00 in BKN
15:42 68.3 °F 56.9 °F 29.85 in WSW 13.8 mph 13.8 mph 67% 0.00 in BKN
15:47 68.1 °F 55.5 °F 29.85 in WSW 13.8 mph 13.8 mph 64% 0.00 in BKN
15:52 67.9 °F 55.7 °F 29.85 in WSW 13.8 mph 13.8 mph 65% 0.00 in BKN
15:57 67.6 °F 55.8 °F 29.86 in WSW 13.8 mph 13.8 mph 66% 0.00 in BKN
16:02 67.5 °F 55.7 °F 29.86 in West 26.5 mph 26.5 mph 66% 0.00 in SCT
16:07 67.6 °F 55.0 °F 29.86 in West 26.5 mph 26.5 mph 64% 0.00 in SCT
16:12 67.7 °F 55.5 °F 29.86 in West 26.5 mph 26.5 mph 65% 0.00 in SCT
16:18 67.6 °F 54.6 °F 29.86 in West 26.5 mph 26.5 mph 63% 0.00 in SCT
16:23 67.5 °F 54.0 °F 29.86 in West 26.5 mph 26.5 mph 62% 0.00 in SCT
16:28 67.6 °F 53.2 °F 29.86 in West 26.5 mph 26.5 mph 60% 0.00 in SCT
16:33 67.5 °F 53.6 °F 29.86 in West 26.5 mph 26.5 mph 61% 0.00 in SCT
16:38 67.4 °F 53.9 °F 29.86 in West 26.5 mph 26.5 mph 62% 0.00 in SCT
16:43 67.2 °F 53.7 °F 29.86 in West 26.5 mph 26.5 mph 62% 0.00 in SCT
16:48 67.1 °F 53.6 °F 29.86 in West 26.5 mph 26.5 mph 62% 0.00 in SCT
16:53 67.1 °F 54.1 °F 29.86 in West 26.5 mph 26.5 mph 63% 0.00 in SCT
16:58 67.1 °F 54.1 °F 29.86 in West 26.5 mph 26.5 mph 63% 0.00 in SCT
17:03 67.1 °F 54.5 °F 29.87 in West 17.3 mph 17.3 mph 64% 0.00 in FEW
17:08 67.0 °F 54.8 °F 29.87 in West 17.3 mph 17.3 mph 65% 0.00 in FEW
17:13 66.7 °F 54.6 °F 29.87 in West 17.3 mph 17.3 mph 65% 0.00 in FEW
17:18 66.3 °F 54.2 °F 29.87 in West 17.3 mph 17.3 mph 65% 0.00 in FEW
17:23 66.0 °F 55.5 °F 29.87 in West 17.3 mph 17.3 mph 69% 0.00 in FEW
17:28 65.6 °F 55.2 °F 29.87 in West 17.3 mph 17.3 mph 69% 0.00 in FEW
17:33 65.4 °F 55.4 °F 29.87 in West 17.3 mph 17.3 mph 70% 0.00 in FEW
17:38 65.2 °F 54.0 °F 29.87 in West 17.3 mph 17.3 mph 67% 0.00 in FEW
17:43 64.9 °F 54.5 °F 29.87 in West 17.3 mph 17.3 mph 69% 0.00 in FEW
17:48 64.7 °F 54.3 °F 29.87 in West 17.3 mph 17.3 mph 69% 0.00 in FEW
17:54 64.5 °F 54.1 °F 29.87 in West 17.3 mph 17.3 mph 69% 0.00 in FEW
17:59 64.3 °F 54.3 °F 29.87 in West 17.3 mph 17.3 mph 70% 0.00 in FEW
18:04 64.1 °F 54.1 °F 29.87 in West 12.7 mph 12.7 mph 70% 0.00 in FEW
18:09 64.0 °F 53.6 °F 29.87 in West 12.7 mph 12.7 mph 69% 0.00 in FEW
18:14 64.0 °F 53.2 °F 29.88 in West 12.7 mph 12.7 mph 68% 0.00 in FEW
18:19 63.9 °F 53.5 °F 29.88 in West 12.7 mph 12.7 mph 69% 0.00 in FEW
18:24 63.7 °F 53.3 °F 29.88 in West 12.7 mph 12.7 mph 69% 0.00 in FEW
18:29 63.5 °F 53.5 °F 29.88 in West 12.7 mph 12.7 mph 70% 0.00 in FEW
18:34 63.3 °F 53.3 °F 29.88 in West 12.7 mph 12.7 mph 70% 0.00 in FEW
18:39 63.0 °F 53.1 °F 29.89 in West 12.7 mph 12.7 mph 70% 0.00 in FEW
18:44 62.7 °F 53.2 °F 29.89 in West 12.7 mph 12.7 mph 71% 0.00 in FEW
18:49 62.4 °F 53.6 °F 29.89 in West 12.7 mph 12.7 mph 73% 0.00 in FEW
18:54 62.0 °F 53.6 °F 29.89 in West 12.7 mph 12.7 mph 74% 0.00 in FEW
18:59 61.6 °F 53.6 °F 29.89 in West 12.7 mph 12.7 mph 75% 0.00 in FEW
19:04 61.4 °F 53.0 °F 29.89 in West 9.2 mph 9.2 mph 74% 0.00 in FEW
19:09 61.1 °F 53.5 °F 29.89 in West 9.2 mph 9.2 mph 76% 0.00 in FEW
19:14 60.7 °F 53.1 °F 29.89 in West 9.2 mph 9.2 mph 76% 0.00 in FEW
19:19 60.3 °F 52.7 °F 29.90 in West 9.2 mph 9.2 mph 76% 0.00 in FEW
19:24 60.0 °F 53.1 °F 29.90 in West 9.2 mph 9.2 mph 78% 0.00 in FEW
19:29 59.7 °F 52.8 °F 29.90 in West 9.2 mph 9.2 mph 78% 0.00 in FEW
19:34 59.4 °F 53.2 °F 29.90 in West 9.2 mph 9.2 mph 80% 0.00 in FEW
19:39 59.2 °F 53.0 °F 29.90 in West 9.2 mph 9.2 mph 80% 0.00 in FEW
19:45 59.2 °F 53.0 °F 29.91 in West 9.0 mph 9.0 mph 80% 0.00 in FEW
19:50 59.3 °F 52.4 °F 29.91 in West 9.0 mph 9.0 mph 78% 0.00 in FEW
19:55 59.4 °F 52.9 °F 29.91 in West 9.0 mph 9.0 mph 79% 0.00 in FEW
19:57 59.4 °F 52.5 °F 29.91 in West 9.2 mph 9.2 mph 78% 0.00 in FEW
20:02 59.5 °F 52.6 °F 29.91 in West 10.4 mph 10.4 mph 78% 0.00 in FEW
20:07 59.3 °F 52.4 °F 29.91 in West 10.4 mph 10.4 mph 78% 0.00 in FEW
20:12 59.2 °F 52.3 °F 29.91 in West 10.4 mph 10.4 mph 78% 0.00 in FEW
20:17 59.2 °F 52.3 °F 29.91 in West 10.4 mph 10.4 mph 78% 0.00 in FEW
20:22 59.1 °F 51.9 °F 29.92 in West 10.4 mph 10.4 mph 77% 0.00 in FEW
20:27 59.2 °F 52.3 °F 29.92 in West 10.4 mph 10.4 mph 78% 0.00 in FEW
20:32 59.2 °F 52.3 °F 29.92 in West 10.4 mph 10.4 mph 78% 0.00 in FEW
20:37 59.2 °F 52.3 °F 29.92 in West 10.4 mph 10.4 mph 78% 0.00 in FEW
20:42 59.1 °F 52.2 °F 29.92 in West 10.4 mph 10.4 mph 78% 0.00 in FEW
20:47 59.0 °F 52.5 °F 29.92 in West 10.4 mph 10.4 mph 79% 0.00 in FEW
20:52 58.8 °F 52.3 °F 29.93 in West 10.4 mph 10.4 mph 79% 0.00 in FEW
20:57 58.8 °F 52.6 °F 29.93 in West 10.4 mph 10.4 mph 80% 0.00 in FEW
21:02 58.8 °F 52.6 °F 29.93 in West 11.5 mph 11.5 mph 80% 0.00 in SCT
21:07 58.8 °F 52.6 °F 29.93 in West 11.5 mph 11.5 mph 80% 0.00 in SCT
21:12 58.7 °F 52.5 °F 29.93 in West 11.5 mph 11.5 mph 80% 0.00 in SCT
21:17 58.6 °F 52.4 °F 29.94 in West 11.5 mph 11.5 mph 80% 0.00 in SCT
21:22 58.5 °F 52.4 °F 29.94 in West 11.5 mph 11.5 mph 80% 0.00 in SCT
21:27 58.5 °F 52.4 °F 29.94 in West 11.5 mph 11.5 mph 80% 0.00 in SCT
21:32 58.4 °F 52.3 °F 29.94 in WNW 12.7 mph 12.7 mph 80% 0.00 in BKN
21:37 58.4 °F 52.6 °F 29.94 in WNW 12.7 mph 12.7 mph 81% 0.00 in BKN
21:42 58.3 °F 52.5 °F 29.94 in WNW 12.7 mph 12.7 mph 81% 0.00 in BKN
21:47 58.2 °F 52.4 °F 29.94 in WNW 12.7 mph 12.7 mph 81% 0.00 in BKN
21:53 58.1 °F 52.3 °F 29.95 in WNW 12.7 mph 12.7 mph 81% 0.00 in BKN
21:58 57.8 °F 52.3 °F 29.95 in WNW 12.7 mph 12.7 mph 82% 0.00 in BKN
22:03 57.6 °F 52.1 °F 29.95 in West 12.7 mph 12.7 mph 82% 0.00 in BKN
22:08 57.5 °F 52.0 °F 29.95 in West 12.7 mph 12.7 mph 82% 0.00 in BKN
22:13 57.4 °F 51.9 °F 29.96 in West 12.7 mph 12.7 mph 82% 0.00 in BKN
22:18 57.4 °F 51.9 °F 29.95 in West 12.7 mph 12.7 mph 82% 0.00 in BKN
22:23 57.3 °F 51.9 °F 29.96 in West 12.7 mph 12.7 mph 82% 0.00 in BKN
22:28 57.2 °F 51.8 °F 29.96 in West 12.7 mph 12.7 mph 82% 0.00 in BKN
22:33 57.0 °F 51.6 °F 29.95 in West 12.7 mph 12.7 mph 82% 0.00 in BKN
22:38 56.8 °F 51.7 °F 29.96 in West 12.7 mph 12.7 mph 83% 0.00 in BKN
22:43 56.7 °F 51.6 °F 29.96 in West 12.7 mph 12.7 mph 83% 0.00 in BKN
22:48 56.6 °F 51.5 °F 29.96 in West 12.7 mph 12.7 mph 83% 0.00 in BKN
22:53 56.5 °F 51.4 °F 29.96 in West 12.7 mph 12.7 mph 83% 0.00 in SCT
22:58 56.4 °F 51.6 °F 29.96 in West 12.7 mph 12.7 mph 84% 0.00 in SCT
23:03 56.3 °F 51.5 °F 29.96 in WNW 11.5 mph 11.5 mph 84% 0.00 in SCT
23:08 56.2 °F 51.4 °F 29.96 in WNW 11.5 mph 11.5 mph 84% 0.00 in SCT
23:14 56.1 °F 51.3 °F 29.96 in WNW 11.5 mph 11.5 mph 84% 0.00 in SCT
23:19 56.1 °F 51.3 °F 29.97 in WNW 11.5 mph 11.5 mph 84% 0.00 in SCT
23:24 56.0 °F 51.6 °F 29.97 in WNW 10.4 mph 10.4 mph 85% 0.00 in BKN
23:27 55.9 °F 51.5 °F 29.97 in WNW 10.4 mph 10.4 mph 85% 0.00 in BKN
23:32 55.7 °F 51.3 °F 29.97 in West 11.5 mph 11.5 mph 85% 0.00 in SCT
23:37 55.5 °F 51.1 °F 29.97 in West 11.5 mph 11.5 mph 85% 0.00 in SCT
23:42 55.2 °F 51.1 °F 29.97 in West 11.5 mph 11.5 mph 86% 0.00 in SCT
23:48 55.0 °F 50.9 °F 29.97 in West 11.5 mph 11.5 mph 86% 0.00 in SCT
23:53 54.8 °F 51.0 °F 29.97 in West 11.5 mph 11.5 mph 87% 0.00 in SCT
23:58 54.6 °F 50.8 °F 29.97 in West 11.5 mph 11.5 mph 87% 0.00 in SCT
Piedmont Bend
Compliments of Weather Underground - 4 mb